createdAt,value
2017-12-11T00:00:52.970Z,56.60
2017-12-11T00:03:21.279Z,56.60
2017-12-11T00:05:48.850Z,56.60
2017-12-11T00:08:16.384Z,56.60
2017-12-11T00:10:43.937Z,56.60
2017-12-11T00:13:12.241Z,56.60
2017-12-11T00:15:39.782Z,56.50
2017-12-11T00:18:08.103Z,56.50
2017-12-11T00:20:35.641Z,56.50
2017-12-11T00:23:03.179Z,56.50
2017-12-11T00:25:31.476Z,56.50
2017-12-11T00:27:59.006Z,56.50
2017-12-11T00:30:27.342Z,56.50
2017-12-11T00:32:54.867Z,56.50
2017-12-11T00:35:22.416Z,56.60
2017-12-11T00:37:49.951Z,56.60
2017-12-11T00:40:18.274Z,56.80
2017-12-11T00:42:45.830Z,56.50
2017-12-11T00:45:13.363Z,56.50
2017-12-11T00:47:41.676Z,56.50
2017-12-11T00:50:09.215Z,56.40
2017-12-11T00:52:36.754Z,56.50
2017-12-11T00:55:05.070Z,56.50
2017-12-11T00:57:32.596Z,56.40
2017-12-11T01:00:00.930Z,56.50
2017-12-11T01:02:29.607Z,56.40
2017-12-11T01:04:57.139Z,56.50
2017-12-11T01:07:24.730Z,56.40
2017-12-11T01:09:52.263Z,56.50
2017-12-11T01:12:20.551Z,56.50
2017-12-11T01:14:48.086Z,56.30
2017-12-11T01:17:15.625Z,57.00
2017-12-11T01:19:43.964Z,56.50
2017-12-11T01:22:11.496Z,56.40
2017-12-11T01:24:39.034Z,56.40
2017-12-11T01:27:07.329Z,56.40
2017-12-11T01:29:34.863Z,56.40
2017-12-11T01:32:03.931Z,56.40
2017-12-11T01:34:31.474Z,56.40
2017-12-11T01:36:59.000Z,56.40
2017-12-11T01:39:26.555Z,56.40
2017-12-11T01:41:54.103Z,56.40
2017-12-11T01:44:38.967Z,56.40
2017-12-11T01:47:07.280Z,56.40
2017-12-11T01:49:34.811Z,56.30
2017-12-11T01:52:03.105Z,56.40
2017-12-11T01:54:30.649Z,56.30
2017-12-11T01:56:58.981Z,56.40
2017-12-11T01:59:26.507Z,56.30
2017-12-11T02:01:54.038Z,56.30
2017-12-11T02:04:22.331Z,56.30
2017-12-11T02:06:49.892Z,56.30
2017-12-11T02:09:17.456Z,56.30
2017-12-11T02:11:44.991Z,56.30
2017-12-11T02:14:13.295Z,56.30
2017-12-11T02:16:40.830Z,56.30
2017-12-11T02:19:09.146Z,56.30
2017-12-11T02:21:36.706Z,56.30
2017-12-11T02:24:04.297Z,56.30
2017-12-11T02:26:31.850Z,56.30
2017-12-11T02:28:59.375Z,56.30
2017-12-11T02:31:26.924Z,56.30
2017-12-11T02:33:54.511Z,56.30
2017-12-11T02:36:22.044Z,56.20
2017-12-11T02:38:49.578Z,56.20
2017-12-11T02:41:17.121Z,56.20
2017-12-11T02:43:44.658Z,56.20
2017-12-11T02:46:12.214Z,56.20
2017-12-11T02:48:39.752Z,56.20
2017-12-11T02:51:07.279Z,56.20
2017-12-11T02:53:35.579Z,56.20
2017-12-11T02:56:03.121Z,56.20
2017-12-11T02:58:31.451Z,56.20
2017-12-11T03:00:58.983Z,56.20
2017-12-11T03:03:26.516Z,56.20
2017-12-11T03:05:54.810Z,56.20
2017-12-11T03:08:23.098Z,56.20
2017-12-11T03:10:50.660Z,56.20
2017-12-11T03:13:18.188Z,56.20
2017-12-11T03:15:46.487Z,56.70
2017-12-11T03:18:14.022Z,56.20
2017-12-11T03:20:41.558Z,56.20
2017-12-11T03:23:09.146Z,56.50
2017-12-11T03:25:37.443Z,56.20
2017-12-11T03:28:05.734Z,56.10
2017-12-11T03:30:33.264Z,56.10
2017-12-11T03:33:01.611Z,56.10
2017-12-11T03:35:29.163Z,56.10
2017-12-11T03:37:56.704Z,56.10
2017-12-11T03:40:24.227Z,56.10
2017-12-11T03:42:52.529Z,56.10
2017-12-11T03:45:20.099Z,56.10
2017-12-11T03:47:47.645Z,56.10
2017-12-11T03:50:15.175Z,56.20
2017-12-11T03:52:43.484Z,56.10
2017-12-11T03:55:11.019Z,56.10
2017-12-11T03:57:38.548Z,56.00
2017-12-11T04:00:06.104Z,56.10
2017-12-11T04:02:33.635Z,56.10
2017-12-11T04:05:01.175Z,56.00
2017-12-11T04:07:28.702Z,56.00
2017-12-11T04:09:56.232Z,56.00
2017-12-11T04:12:23.784Z,56.00
2017-12-11T04:14:51.320Z,56.00
2017-12-11T04:17:18.856Z,56.00
2017-12-11T04:19:47.151Z,56.00
2017-12-11T04:22:14.680Z,56.00
2017-12-11T04:24:42.239Z,56.00
2017-12-11T04:27:09.793Z,56.00
2017-12-11T04:29:37.318Z,56.70
2017-12-11T04:32:04.855Z,56.00
2017-12-11T04:34:32.382Z,56.00
2017-12-11T04:37:00.705Z,56.00
2017-12-11T04:39:28.239Z,56.00
2017-12-11T04:41:56.531Z,56.00
2017-12-11T04:44:24.058Z,56.00
2017-12-11T04:46:52.367Z,56.00
2017-12-11T04:49:20.868Z,56.00
2017-12-11T04:51:48.406Z,56.00
2017-12-11T04:54:15.934Z,56.00
2017-12-11T04:56:44.245Z,56.10
2017-12-11T04:59:11.783Z,55.90
2017-12-11T05:01:40.108Z,56.00
2017-12-11T05:04:07.639Z,56.00
2017-12-11T05:06:35.177Z,55.90
2017-12-11T05:09:03.484Z,56.00
2017-12-11T05:11:31.028Z,56.00
2017-12-11T05:13:58.600Z,56.00
2017-12-11T05:16:26.139Z,56.00
2017-12-11T05:18:55.290Z,56.10
2017-12-11T05:21:22.819Z,56.10
2017-12-11T05:23:54.244Z,56.10
2017-12-11T05:26:23.872Z,56.10
2017-12-11T05:28:51.469Z,55.90
2017-12-11T05:31:19.093Z,56.00
2017-12-11T05:33:47.466Z,56.00
2017-12-11T05:36:15.001Z,56.00
2017-12-11T05:38:42.906Z,56.00
2017-12-11T05:41:10.436Z,56.00
2017-12-11T05:43:38.737Z,56.10
2017-12-11T05:46:06.271Z,56.00
2017-12-11T05:48:36.500Z,56.10
2017-12-11T05:51:04.830Z,56.10
2017-12-11T05:53:32.392Z,56.00
2017-12-11T05:55:59.939Z,56.10
2017-12-11T05:58:27.483Z,56.10
2017-12-11T06:00:55.035Z,56.10
2017-12-11T06:03:22.609Z,56.20
2017-12-11T06:05:50.178Z,56.30
2017-12-11T06:08:17.714Z,56.40
2017-12-11T06:10:48.268Z,56.40
2017-12-11T06:13:15.802Z,56.50
2017-12-11T06:15:43.355Z,56.50
2017-12-11T06:18:11.659Z,56.60
2017-12-11T06:20:39.207Z,56.60
2017-12-11T06:23:06.734Z,56.70
2017-12-11T06:25:35.038Z,56.80
2017-12-11T06:28:02.612Z,56.70
2017-12-11T06:30:30.144Z,56.80
2017-12-11T06:32:58.450Z,56.90
2017-12-11T06:35:25.984Z,56.80
2017-12-11T06:37:54.287Z,57.00
2017-12-11T06:40:21.889Z,56.90
2017-12-11T06:42:49.431Z,57.00
2017-12-11T06:45:16.954Z,57.00
2017-12-11T06:47:44.496Z,57.00
2017-12-11T06:50:12.821Z,57.10
2017-12-11T06:52:40.371Z,57.10
2017-12-11T06:55:07.910Z,57.10
2017-12-11T06:57:35.451Z,57.10
2017-12-11T07:00:02.992Z,57.10
2017-12-11T07:02:30.522Z,57.10
2017-12-11T07:04:58.087Z,57.10
2017-12-11T07:07:25.639Z,57.10
2017-12-11T07:09:53.823Z,57.10
2017-12-11T07:12:21.356Z,57.10
2017-12-11T07:14:48.886Z,57.10
2017-12-11T07:17:17.203Z,57.20
2017-12-11T07:19:44.734Z,57.10
2017-12-11T07:22:12.273Z,57.10
2017-12-11T07:24:40.575Z,57.30
2017-12-11T07:27:08.127Z,57.10
2017-12-11T07:29:36.446Z,57.20
2017-12-11T07:32:03.982Z,57.50
2017-12-11T07:34:31.544Z,57.20
2017-12-11T07:36:59.854Z,57.20
2017-12-11T07:39:27.378Z,57.10
2017-12-11T07:41:54.936Z,57.10
2017-12-11T07:44:22.481Z,57.20
2017-12-11T07:46:50.786Z,57.20
2017-12-11T07:49:18.326Z,57.20
2017-12-11T07:51:45.859Z,57.20
2017-12-11T07:54:13.439Z,57.20
2017-12-11T07:56:41.735Z,57.20
2017-12-11T07:59:10.323Z,57.20
2017-12-11T08:01:37.866Z,57.10
2017-12-11T08:04:05.431Z,57.10
2017-12-11T08:06:33.002Z,57.10
2017-12-11T08:09:00.534Z,57.10
2017-12-11T08:11:28.839Z,57.10
2017-12-11T08:13:56.379Z,57.10
2017-12-11T08:16:24.682Z,57.10
2017-12-11T08:18:52.237Z,57.10
2017-12-11T08:21:19.769Z,57.10
2017-12-11T08:23:48.087Z,57.10
2017-12-11T08:26:15.618Z,57.10
2017-12-11T08:28:43.146Z,57.10
2017-12-11T08:31:10.706Z,57.10
2017-12-11T08:33:38.245Z,57.00
2017-12-11T08:36:05.780Z,57.00
2017-12-11T08:38:33.319Z,57.00
2017-12-11T08:41:00.854Z,57.00
2017-12-11T08:43:29.197Z,57.00
2017-12-11T08:45:56.730Z,57.00
2017-12-11T08:48:24.262Z,57.00
2017-12-11T08:50:52.553Z,57.00
2017-12-11T08:53:20.097Z,57.00
2017-12-11T08:55:48.427Z,57.00
2017-12-11T08:58:15.968Z,56.90
2017-12-11T09:00:43.556Z,56.90
2017-12-11T09:03:11.091Z,56.90
2017-12-11T09:05:38.639Z,56.90
2017-12-11T09:08:06.223Z,56.90
2017-12-11T09:10:33.764Z,56.90
2017-12-11T09:13:01.295Z,56.90
2017-12-11T09:15:29.595Z,56.90
2017-12-11T09:17:57.146Z,56.80
2017-12-11T09:20:24.722Z,56.90
2017-12-11T09:22:52.271Z,56.80
2017-12-11T09:25:19.803Z,56.90
2017-12-11T09:27:48.108Z,56.90
2017-12-11T09:30:15.642Z,56.80
2017-12-11T09:32:43.206Z,56.80
2017-12-11T09:35:11.506Z,56.80
2017-12-11T09:37:39.051Z,56.80
2017-12-11T09:40:07.352Z,56.80
2017-12-11T09:42:34.883Z,56.70
2017-12-11T09:45:03.205Z,56.80
2017-12-11T09:47:30.747Z,56.80
2017-12-11T09:49:58.281Z,56.70
2017-12-11T09:52:25.813Z,56.70
2017-12-11T09:54:53.343Z,56.70
2017-12-11T09:57:20.907Z,56.60
2017-12-11T09:59:48.493Z,56.60
2017-12-11T10:02:15.996Z,56.60
2017-12-11T10:04:43.538Z,56.60
2017-12-11T10:07:11.840Z,56.60
2017-12-11T10:09:39.438Z,56.50
2017-12-11T10:12:06.985Z,56.50
2017-12-11T10:14:34.525Z,56.50
2017-12-11T10:17:02.086Z,56.50
2017-12-11T10:19:29.641Z,56.50
2017-12-11T10:21:57.195Z,56.50
2017-12-11T10:24:24.734Z,56.50
2017-12-11T10:26:53.031Z,56.50
2017-12-11T10:29:20.572Z,56.40
2017-12-11T10:31:48.871Z,56.40
2017-12-11T10:34:16.439Z,56.40
2017-12-11T10:36:43.975Z,56.50
2017-12-11T10:39:11.522Z,56.40
2017-12-11T10:41:39.840Z,56.50
2017-12-11T10:44:07.382Z,56.30
2017-12-11T10:46:34.964Z,56.40
2017-12-11T10:49:02.525Z,56.40
2017-12-11T10:51:30.066Z,56.40
2017-12-11T10:53:57.612Z,56.40
2017-12-11T10:56:25.159Z,56.30
2017-12-11T10:58:53.484Z,56.30
2017-12-11T11:01:21.782Z,56.30
2017-12-11T11:03:49.317Z,56.30
2017-12-11T11:06:16.848Z,56.30
2017-12-11T11:08:45.153Z,56.30
2017-12-11T11:11:12.712Z,56.30
2017-12-11T11:13:40.260Z,56.30
2017-12-11T11:16:07.792Z,56.30
2017-12-11T11:18:36.123Z,56.30
2017-12-11T11:21:04.021Z,56.30
2017-12-11T11:23:32.380Z,56.30
2017-12-11T11:26:10.219Z,56.30
2017-12-11T11:28:38.594Z,56.30
2017-12-11T11:31:06.940Z,56.30
2017-12-11T11:33:34.483Z,56.30
2017-12-11T11:36:02.022Z,56.30
2017-12-11T11:38:29.555Z,56.30
2017-12-11T11:40:57.878Z,56.30
2017-12-11T11:43:25.408Z,56.30
2017-12-11T11:45:53.705Z,56.30
2017-12-11T11:48:21.228Z,56.30
2017-12-11T11:50:49.531Z,56.80
2017-12-11T11:53:17.101Z,56.30
2017-12-11T11:55:44.719Z,56.30
2017-12-11T11:58:12.255Z,56.30
2017-12-11T12:00:39.802Z,56.30
2017-12-11T12:03:07.337Z,56.30
2017-12-11T12:05:34.911Z,56.30
2017-12-11T12:08:02.453Z,56.30
2017-12-11T12:10:29.991Z,56.30
2017-12-11T12:12:58.303Z,56.30
2017-12-11T12:15:25.846Z,56.30
2017-12-11T12:17:53.420Z,56.40
2017-12-11T12:20:20.951Z,56.40
2017-12-11T12:22:49.564Z,56.40
2017-12-11T12:25:17.098Z,56.40
2017-12-11T12:27:45.405Z,56.40
2017-12-11T12:30:13.001Z,56.40
2017-12-11T12:32:40.562Z,56.40
2017-12-11T12:35:08.149Z,56.50
2017-12-11T12:37:36.448Z,56.60
2017-12-11T12:40:03.987Z,56.50
2017-12-11T12:42:32.306Z,56.70
2017-12-11T12:44:59.836Z,56.50
2017-12-11T12:47:28.136Z,56.70
2017-12-11T12:49:55.666Z,56.70
2017-12-11T12:52:23.963Z,56.80
2017-12-11T12:54:51.533Z,56.80
2017-12-11T12:57:19.118Z,56.80
2017-12-11T12:59:46.678Z,56.80
2017-12-11T13:02:15.786Z,56.90
2017-12-11T13:04:43.324Z,56.90
2017-12-11T13:07:10.879Z,57.00
2017-12-11T13:09:38.423Z,57.00
2017-12-11T13:12:06.582Z,57.00
2017-12-11T13:14:34.123Z,57.00
2017-12-11T13:17:02.775Z,57.10
2017-12-11T13:19:30.337Z,57.10
2017-12-11T13:21:57.915Z,57.10
2017-12-11T13:24:25.468Z,57.10
2017-12-11T13:26:53.004Z,57.10
2017-12-11T13:29:20.536Z,57.10
2017-12-11T13:31:48.108Z,57.10
2017-12-11T13:34:15.643Z,57.20
2017-12-11T13:36:43.938Z,57.20
2017-12-11T13:39:11.483Z,57.20
2017-12-11T13:41:40.321Z,57.30
2017-12-11T13:44:07.893Z,57.20
2017-12-11T13:46:35.436Z,57.30
2017-12-11T13:49:02.970Z,57.30
2017-12-11T13:51:30.536Z,57.30
2017-12-11T13:53:58.077Z,57.80
2017-12-11T13:56:25.641Z,57.30
2017-12-11T13:58:53.199Z,57.30
2017-12-11T14:01:20.736Z,57.30
2017-12-11T14:03:49.060Z,57.40
2017-12-11T14:06:16.597Z,57.40
2017-12-11T14:08:48.195Z,57.40
2017-12-11T14:11:15.734Z,57.40
2017-12-11T14:13:43.272Z,57.50
2017-12-11T14:16:10.804Z,57.60
2017-12-11T14:18:38.339Z,57.60
2017-12-11T14:21:06.414Z,57.50
2017-12-11T14:23:33.967Z,57.60
2017-12-11T14:26:01.504Z,57.60
2017-12-11T14:28:29.043Z,57.60
2017-12-11T14:30:56.578Z,57.70
2017-12-11T14:33:24.923Z,57.70
2017-12-11T14:35:52.455Z,58.10
2017-12-11T14:38:19.988Z,57.60
2017-12-11T14:40:48.281Z,57.80
2017-12-11T14:43:15.819Z,57.70
2017-12-11T14:46:08.848Z,57.70
2017-12-11T14:48:36.387Z,57.70
2017-12-11T14:51:04.363Z,57.80
2017-12-11T14:53:31.892Z,57.80
2017-12-11T14:55:59.423Z,57.80
2017-12-11T14:58:27.754Z,57.90
2017-12-11T15:00:55.288Z,57.70
2017-12-11T15:03:22.855Z,57.80
2017-12-11T15:05:50.382Z,57.80
2017-12-11T15:08:18.679Z,57.80
2017-12-11T15:10:46.227Z,57.80
2017-12-11T15:13:14.528Z,57.80
2017-12-11T15:15:42.093Z,57.80
2017-12-11T15:18:09.621Z,57.80
2017-12-11T15:20:37.911Z,57.80
2017-12-11T15:23:05.447Z,57.80
2017-12-11T15:25:33.753Z,57.80
2017-12-11T15:28:01.332Z,57.80
2017-12-11T15:30:28.850Z,57.80
2017-12-11T15:32:57.151Z,57.80
2017-12-11T15:35:24.699Z,57.80
2017-12-11T15:37:57.374Z,57.80
2017-12-11T15:40:25.703Z,57.80
2017-12-11T15:42:53.231Z,57.80
2017-12-11T15:45:20.760Z,57.80
2017-12-11T15:48:00.832Z,57.90
2017-12-11T15:50:28.517Z,57.90
2017-12-11T15:52:59.014Z,57.90
2017-12-11T15:55:28.259Z,58.00
2017-12-11T15:57:55.797Z,58.00
2017-12-11T16:00:23.327Z,58.00
2017-12-11T16:02:51.623Z,58.10
2017-12-11T16:05:19.175Z,58.00
2017-12-11T16:07:47.480Z,58.10
2017-12-11T16:10:15.023Z,58.10
2017-12-11T16:12:46.006Z,58.10
2017-12-11T16:15:13.541Z,58.10
2017-12-11T16:17:41.079Z,58.10
2017-12-11T16:20:12.131Z,58.10
2017-12-11T16:22:39.732Z,58.10
2017-12-11T16:25:08.280Z,58.10
2017-12-11T16:27:35.817Z,58.10
2017-12-11T16:30:05.330Z,58.10
2017-12-11T16:32:32.941Z,58.10
2017-12-11T16:35:00.490Z,58.10
2017-12-11T16:37:28.831Z,58.10
2017-12-11T16:39:58.035Z,58.10
2017-12-11T16:42:25.574Z,58.10
2017-12-11T16:44:54.520Z,58.20
2017-12-11T16:47:22.050Z,58.10
2017-12-11T16:49:49.582Z,58.20
2017-12-11T16:52:17.928Z,58.10
2017-12-11T16:54:46.784Z,58.20
2017-12-11T16:57:14.344Z,58.10
2017-12-11T16:59:41.877Z,58.20
2017-12-11T17:02:10.217Z,58.20
2017-12-11T17:04:37.764Z,58.20
2017-12-11T17:07:06.363Z,58.20
2017-12-11T17:09:34.136Z,58.20
2017-12-11T17:12:02.473Z,58.60
2017-12-11T17:14:30.030Z,58.20
2017-12-11T17:16:57.575Z,58.20
2017-12-11T17:19:25.118Z,58.20
2017-12-11T17:21:53.412Z,58.20
2017-12-11T17:24:20.940Z,58.20
2017-12-11T17:26:48.477Z,58.20
2017-12-11T17:29:16.011Z,58.20
2017-12-11T17:31:43.544Z,58.20
2017-12-11T17:34:11.867Z,58.20
2017-12-11T17:36:39.404Z,58.20
2017-12-11T17:39:06.925Z,58.20
2017-12-11T17:41:35.219Z,58.20
2017-12-11T17:44:03.510Z,58.20
2017-12-11T17:46:31.078Z,58.20
2017-12-11T17:48:58.619Z,58.20
2017-12-11T17:51:26.159Z,58.20
2017-12-11T17:53:53.694Z,58.20
2017-12-11T17:56:21.223Z,58.20
2017-12-11T17:58:48.825Z,58.20
2017-12-11T18:01:16.374Z,58.70
2017-12-11T18:03:44.535Z,58.20
2017-12-11T18:06:12.071Z,58.20
2017-12-11T18:08:39.620Z,58.20
2017-12-11T18:11:07.151Z,58.20
2017-12-11T18:13:35.453Z,58.20
2017-12-11T18:16:02.986Z,58.20
2017-12-11T18:18:31.298Z,57.90
2017-12-11T18:20:58.830Z,58.20
2017-12-11T18:23:26.371Z,58.20
2017-12-11T18:25:53.955Z,58.20
2017-12-11T18:28:22.278Z,58.30
2017-12-11T18:30:49.841Z,58.20
2017-12-11T18:33:17.367Z,58.20
2017-12-11T18:35:55.353Z,58.30
2017-12-11T18:38:23.670Z,58.30
2017-12-11T18:40:51.294Z,58.30
2017-12-11T18:43:18.790Z,58.30
2017-12-11T18:45:46.346Z,58.20
2017-12-11T18:48:17.084Z,58.30
2017-12-11T18:50:44.621Z,58.30
2017-12-11T18:53:12.183Z,58.40
2017-12-11T18:55:39.746Z,58.30
2017-12-11T18:58:08.223Z,58.30
2017-12-11T19:00:35.791Z,58.40
2017-12-11T19:03:03.349Z,58.30
2017-12-11T19:05:32.667Z,58.30
2017-12-11T19:08:00.203Z,58.30
2017-12-11T19:10:27.825Z,58.30
2017-12-11T19:12:55.359Z,58.30
2017-12-11T19:15:22.908Z,58.30
2017-12-11T19:17:50.470Z,58.30
2017-12-11T19:20:18.050Z,58.30
2017-12-11T19:22:45.605Z,58.30
2017-12-11T19:25:13.251Z,58.20
2017-12-11T19:28:05.823Z,58.30
2017-12-11T19:30:33.363Z,58.30
2017-12-11T19:33:01.676Z,58.20
2017-12-11T19:35:29.246Z,58.20
2017-12-11T19:37:56.775Z,58.20
2017-12-11T19:40:24.312Z,58.40
2017-12-11T19:42:51.844Z,58.20
2017-12-11T19:45:23.622Z,58.20
2017-12-11T19:47:51.161Z,58.20
2017-12-11T19:50:32.594Z,58.20
2017-12-11T19:55:54.307Z,58.20
2017-12-11T19:58:38.643Z,58.20
2017-12-11T20:01:06.946Z,58.20
2017-12-11T20:03:34.512Z,58.20
2017-12-11T20:06:02.036Z,58.20
2017-12-11T20:08:30.343Z,58.20
2017-12-11T20:10:59.842Z,58.20
2017-12-11T20:13:27.371Z,58.10
2017-12-11T20:19:00.119Z,58.10
2017-12-11T20:21:27.674Z,58.10
2017-12-11T20:24:01.532Z,58.10
2017-12-11T20:26:29.098Z,58.10
2017-12-11T20:28:57.399Z,58.10
2017-12-11T20:31:24.964Z,58.10
2017-12-11T20:33:52.525Z,58.10
2017-12-11T20:36:20.054Z,58.10
2017-12-11T20:38:48.636Z,58.00
2017-12-11T20:41:16.186Z,58.00
2017-12-11T20:43:44.509Z,58.00
2017-12-11T20:46:12.050Z,58.00
2017-12-11T20:48:40.346Z,58.00
2017-12-11T20:51:07.911Z,57.90
2017-12-11T20:53:35.442Z,57.90
2017-12-11T20:56:03.806Z,58.00
2017-12-11T20:58:31.334Z,57.90
2017-12-11T21:00:58.877Z,57.90
2017-12-11T21:03:26.439Z,57.90
2017-12-11T21:05:53.975Z,57.90
2017-12-11T21:08:21.515Z,57.90
2017-12-11T21:10:49.836Z,57.80
2017-12-11T21:13:17.365Z,57.80
2017-12-11T21:15:45.694Z,57.80
2017-12-11T21:18:13.230Z,57.80
2017-12-11T21:20:40.774Z,57.80
2017-12-11T21:23:08.303Z,57.80
2017-12-11T21:25:35.846Z,57.80
2017-12-11T21:28:03.416Z,57.80
2017-12-11T21:30:30.951Z,57.80
2017-12-11T21:32:58.494Z,57.80
2017-12-11T21:35:26.038Z,57.70
2017-12-11T21:37:53.568Z,57.70
2017-12-11T21:40:21.899Z,57.70
2017-12-11T21:42:49.441Z,57.70
2017-12-11T21:45:16.973Z,57.70
2017-12-11T21:47:45.285Z,57.70
2017-12-11T21:50:12.819Z,57.70
2017-12-11T21:52:40.382Z,57.60
2017-12-11T21:55:07.917Z,57.60
2017-12-11T21:57:36.218Z,57.60
2017-12-11T22:00:03.764Z,57.60
2017-12-11T22:02:32.078Z,57.60
2017-12-11T22:04:59.643Z,57.60
2017-12-11T22:07:27.187Z,57.60
2017-12-11T22:09:54.731Z,57.50
2017-12-11T22:12:23.051Z,57.50
2017-12-11T22:14:50.884Z,57.50
2017-12-11T22:17:18.521Z,57.50
2017-12-11T22:19:50.515Z,57.50
2017-12-11T22:22:18.079Z,57.50
2017-12-11T22:24:45.615Z,57.50
2017-12-11T22:27:13.954Z,57.50
2017-12-11T22:29:41.486Z,57.50
2017-12-11T22:32:09.028Z,57.50
2017-12-11T22:34:36.590Z,57.50
2017-12-11T22:37:04.120Z,57.50
2017-12-11T22:39:31.667Z,57.50
2017-12-11T22:41:59.286Z,57.50
2017-12-11T22:44:26.823Z,57.40
2017-12-11T22:46:54.386Z,57.50
2017-12-11T22:49:21.913Z,57.40
2017-12-11T22:51:49.463Z,57.40
2017-12-11T22:54:17.021Z,57.40
2017-12-11T22:56:44.552Z,57.40
2017-12-11T22:59:12.112Z,57.90
2017-12-11T23:01:39.652Z,57.40
2017-12-11T23:04:07.179Z,57.30
2017-12-11T23:06:35.506Z,57.40
2017-12-11T23:09:03.054Z,57.30
2017-12-11T23:11:30.626Z,57.30
2017-12-11T23:13:58.159Z,57.30
2017-12-11T23:16:25.700Z,57.30
2017-12-11T23:18:54.006Z,57.30
2017-12-11T23:21:21.546Z,57.30
2017-12-11T23:23:49.878Z,57.30
2017-12-11T23:26:17.413Z,57.30
2017-12-11T23:28:44.943Z,57.30
2017-12-11T23:31:13.246Z,57.30
2017-12-11T23:33:40.791Z,57.30
2017-12-11T23:36:08.369Z,57.30
2017-12-11T23:38:35.901Z,57.30
2017-12-11T23:41:04.200Z,57.30
2017-12-11T23:43:31.787Z,57.20
2017-12-11T23:45:59.334Z,57.20
2017-12-11T23:48:26.899Z,57.20
2017-12-11T23:50:54.437Z,57.20
2017-12-11T23:53:21.967Z,57.20
2017-12-11T23:55:50.279Z,57.20
2017-12-11T23:58:17.815Z,57.20
